sensor_id;sensor_type;location;lat;lon;timestamp;temperature;humidity
5196;DHT22;2617;51.006;12.436;2023-07-31T00:00:37;14.70;99.90
5196;DHT22;2617;51.006;12.436;2023-07-31T00:05:39;14.80;99.90
5196;DHT22;2617;51.006;12.436;2023-07-31T00:10:42;14.90;99.90
5196;DHT22;2617;51.006;12.436;2023-07-31T00:15:45;15.10;99.90
5196;DHT22;2617;51.006;12.436;2023-07-31T00:20:48;15.10;99.90
5196;DHT22;2617;51.006;12.436;2023-07-31T00:25:50;15.20;99.90
5196;DHT22;2617;51.006;12.436;2023-07-31T00:30:52;15.30;99.90
5196;DHT22;2617;51.006;12.436;2023-07-31T00:35:55;15.40;99.90
5196;DHT22;2617;51.006;12.436;2023-07-31T00:40:58;15.60;99.90
5196;DHT22;2617;51.006;12.436;2023-07-31T00:46:00;15.50;99.90
5196;DHT22;2617;51.006;12.436;2023-07-31T00:51:04;15.60;99.90
5196;DHT22;2617;51.006;12.436;2023-07-31T00:56:06;15.60;99.90
5196;DHT22;2617;51.006;12.436;2023-07-31T01:01:09;15.70;99.90
5196;DHT22;2617;51.006;12.436;2023-07-31T01:06:18;15.70;99.90
5196;DHT22;2617;51.006;12.436;2023-07-31T01:16:38;15.80;99.90
5196;DHT22;2617;51.006;12.436;2023-07-31T01:21:47;15.70;99.90
5196;DHT22;2617;51.006;12.436;2023-07-31T01:26:56;15.80;99.90
5196;DHT22;2617;51.006;12.436;2023-07-31T01:31:59;15.80;99.90
5196;DHT22;2617;51.006;12.436;2023-07-31T01:37:01;15.80;99.90
5196;DHT22;2617;51.006;12.436;2023-07-31T01:42:04;15.80;99.90
5196;DHT22;2617;51.006;12.436;2023-07-31T01:47:07;15.80;99.90
5196;DHT22;2617;51.006;12.436;2023-07-31T01:52:09;15.90;99.90
5196;DHT22;2617;51.006;12.436;2023-07-31T01:57:12;15.90;99.90
5196;DHT22;2617;51.006;12.436;2023-07-31T02:02:14;15.90;99.90
5196;DHT22;2617;51.006;12.436;2023-07-31T02:07:17;15.90;99.90
5196;DHT22;2617;51.006;12.436;2023-07-31T02:12:19;15.90;99.90
5196;DHT22;2617;51.006;12.436;2023-07-31T02:17:22;15.80;99.90
5196;DHT22;2617;51.006;12.436;2023-07-31T02:22:24;15.80;99.90
5196;DHT22;2617;51.006;12.436;2023-07-31T02:27:27;15.70;99.90
5196;DHT22;2617;51.006;12.436;2023-07-31T02:32:29;15.60;99.90
5196;DHT22;2617;51.006;12.436;2023-07-31T02:37:31;15.50;99.90
5196;DHT22;2617;51.006;12.436;2023-07-31T02:42:35;15.40;99.90
5196;DHT22;2617;51.006;12.436;2023-07-31T02:47:37;15.30;99.90
5196;DHT22;2617;51.006;12.436;2023-07-31T02:52:39;15.30;99.90
5196;DHT22;2617;51.006;12.436;2023-07-31T02:57:42;15.20;99.90
5196;DHT22;2617;51.006;12.436;2023-07-31T03:02:44;15.20;99.90
5196;DHT22;2617;51.006;12.436;2023-07-31T03:07:48;15.20;99.90
5196;DHT22;2617;51.006;12.436;2023-07-31T03:12:50;15.20;99.90
5196;DHT22;2617;51.006;12.436;2023-07-31T03:17:52;15.20;99.90
5196;DHT22;2617;51.006;12.436;2023-07-31T03:22:55;15.20;99.90
5196;DHT22;2617;51.006;12.436;2023-07-31T03:27:57;15.10;99.90
5196;DHT22;2617;51.006;12.436;2023-07-31T03:33:00;15.00;99.90
5196;DHT22;2617;51.006;12.436;2023-07-31T03:38:02;14.90;99.90
5196;DHT22;2617;51.006;12.436;2023-07-31T03:43:05;14.90;99.90
5196;DHT22;2617;51.006;12.436;2023-07-31T03:48:08;14.70;99.90
5196;DHT22;2617;51.006;12.436;2023-07-31T03:53:10;14.60;99.90
5196;DHT22;2617;51.006;12.436;2023-07-31T03:58:13;14.60;99.90
5196;DHT22;2617;51.006;12.436;2023-07-31T04:03:15;14.50;99.90
5196;DHT22;2617;51.006;12.436;2023-07-31T04:08:18;14.50;99.90
5196;DHT22;2617;51.006;12.436;2023-07-31T04:13:22;14.50;99.90
5196;DHT22;2617;51.006;12.436;2023-07-31T04:18:24;14.50;99.90
5196;DHT22;2617;51.006;12.436;2023-07-31T04:23:27;14.40;99.90
5196;DHT22;2617;51.006;12.436;2023-07-31T04:28:30;14.50;99.90
5196;DHT22;2617;51.006;12.436;2023-07-31T04:33:33;14.50;99.90
5196;DHT22;2617;51.006;12.436;2023-07-31T04:38:35;14.50;99.90
5196;DHT22;2617;51.006;12.436;2023-07-31T04:43:38;14.60;99.90
5196;DHT22;2617;51.006;12.436;2023-07-31T04:48:40;14.70;99.90
5196;DHT22;2617;51.006;12.436;2023-07-31T04:53:43;14.70;99.90
5196;DHT22;2617;51.006;12.436;2023-07-31T04:58:45;14.80;99.90
5196;DHT22;2617;51.006;12.436;2023-07-31T05:03:48;14.80;99.90
5196;DHT22;2617;51.006;12.436;2023-07-31T05:08:50;14.80;99.90
5196;DHT22;2617;51.006;12.436;2023-07-31T05:13:54;14.80;99.90
5196;DHT22;2617;51.006;12.436;2023-07-31T05:18:57;14.80;99.90
5196;DHT22;2617;51.006;12.436;2023-07-31T05:23:59;14.80;99.90
5196;DHT22;2617;51.006;12.436;2023-07-31T05:29:02;14.90;99.90
5196;DHT22;2617;51.006;12.436;2023-07-31T05:34:04;14.90;99.90
5196;DHT22;2617;51.006;12.436;2023-07-31T05:39:07;14.90;99.90
5196;DHT22;2617;51.006;12.436;2023-07-31T05:44:10;14.80;99.90
5196;DHT22;2617;51.006;12.436;2023-07-31T05:49:13;15.10;99.90
5196;DHT22;2617;51.006;12.436;2023-07-31T05:54:15;15.00;99.90
5196;DHT22;2617;51.006;12.436;2023-07-31T05:59:18;15.20;99.90
5196;DHT22;2617;51.006;12.436;2023-07-31T06:04:21;15.70;99.90
5196;DHT22;2617;51.006;12.436;2023-07-31T06:09:24;15.80;99.90
5196;DHT22;2617;51.006;12.436;2023-07-31T06:14:27;15.80;99.90
5196;DHT22;2617;51.006;12.436;2023-07-31T06:19:30;16.00;99.90
5196;DHT22;2617;51.006;12.436;2023-07-31T06:24:32;16.00;99.90
5196;DHT22;2617;51.006;12.436;2023-07-31T06:29:35;16.10;99.90
5196;DHT22;2617;51.006;12.436;2023-07-31T06:34:37;16.10;99.90
5196;DHT22;2617;51.006;12.436;2023-07-31T06:39:39;16.20;99.90
5196;DHT22;2617;51.006;12.436;2023-07-31T06:44:43;16.30;99.90
5196;DHT22;2617;51.006;12.436;2023-07-31T06:49:45;16.20;99.90
5196;DHT22;2617;51.006;12.436;2023-07-31T06:55:00;16.20;99.90
5196;DHT22;2617;51.006;12.436;2023-07-31T06:59:51;16.30;99.90
5196;DHT22;2617;51.006;12.436;2023-07-31T07:04:54;16.70;99.90
5196;DHT22;2617;51.006;12.436;2023-07-31T07:09:57;16.70;99.90
5196;DHT22;2617;51.006;12.436;2023-07-31T07:15:00;17.20;99.90
5196;DHT22;2617;51.006;12.436;2023-07-31T07:20:02;17.20;99.90
5196;DHT22;2617;51.006;12.436;2023-07-31T07:25:05;17.40;99.90
5196;DHT22;2617;51.006;12.436;2023-07-31T07:30:09;17.50;99.90
5196;DHT22;2617;51.006;12.436;2023-07-31T07:35:11;17.60;99.90
5196;DHT22;2617;51.006;12.436;2023-07-31T07:40:14;17.60;99.90
5196;DHT22;2617;51.006;12.436;2023-07-31T07:45:17;17.60;99.90
5196;DHT22;2617;51.006;12.436;2023-07-31T07:50:19;17.50;99.90
5196;DHT22;2617;51.006;12.436;2023-07-31T07:55:22;17.40;99.90
5196;DHT22;2617;51.006;12.436;2023-07-31T08:00:24;17.40;99.90
5196;DHT22;2617;51.006;12.436;2023-07-31T08:05:28;17.40;99.90
5196;DHT22;2617;51.006;12.436;2023-07-31T08:10:30;17.30;99.90
5196;DHT22;2617;51.006;12.436;2023-07-31T08:15:32;17.40;99.90
5196;DHT22;2617;51.006;12.436;2023-07-31T08:20:35;17.40;99.90
5196;DHT22;2617;51.006;12.436;2023-07-31T08:25:38;17.70;99.90
5196;DHT22;2617;51.006;12.436;2023-07-31T08:30:41;17.70;99.90
5196;DHT22;2617;51.006;12.436;2023-07-31T08:35:44;18.00;99.90
5196;DHT22;2617;51.006;12.436;2023-07-31T08:40:46;18.00;99.90
5196;DHT22;2617;51.006;12.436;2023-07-31T08:45:49;18.10;99.90
5196;DHT22;2617;51.006;12.436;2023-07-31T08:50:52;18.40;99.90
5196;DHT22;2617;51.006;12.436;2023-07-31T08:55:55;18.40;99.90
5196;DHT22;2617;51.006;12.436;2023-07-31T09:00:57;18.50;99.90
5196;DHT22;2617;51.006;12.436;2023-07-31T09:06:00;18.70;99.90
5196;DHT22;2617;51.006;12.436;2023-07-31T09:11:02;18.90;99.90
5196;DHT22;2617;51.006;12.436;2023-07-31T09:16:04;19.10;99.90
5196;DHT22;2617;51.006;12.436;2023-07-31T09:21:07;19.20;99.90
5196;DHT22;2617;51.006;12.436;2023-07-31T09:26:09;19.40;99.90
5196;DHT22;2617;51.006;12.436;2023-07-31T09:31:12;19.50;99.90
5196;DHT22;2617;51.006;12.436;2023-07-31T09:36:14;19.80;99.90
5196;DHT22;2617;51.006;12.436;2023-07-31T09:41:17;19.70;99.90
5196;DHT22;2617;51.006;12.436;2023-07-31T09:46:20;19.70;99.90
5196;DHT22;2617;51.006;12.436;2023-07-31T09:51:26;19.60;99.90
5196;DHT22;2617;51.006;12.436;2023-07-31T09:56:30;19.40;99.90
5196;DHT22;2617;51.006;12.436;2023-07-31T10:01:32;19.30;99.90
5196;DHT22;2617;51.006;12.436;2023-07-31T10:06:35;19.20;99.90
5196;DHT22;2617;51.006;12.436;2023-07-31T10:11:38;19.10;99.90
5196;DHT22;2617;51.006;12.436;2023-07-31T10:16:40;19.10;99.90
5196;DHT22;2617;51.006;12.436;2023-07-31T10:21:43;19.10;99.90
5196;DHT22;2617;51.006;12.436;2023-07-31T10:26:45;19.30;99.90
5196;DHT22;2617;51.006;12.436;2023-07-31T10:31:48;19.70;99.90
5196;DHT22;2617;51.006;12.436;2023-07-31T10:36:50;20.20;99.90
5196;DHT22;2617;51.006;12.436;2023-07-31T10:41:54;21.00;99.90
5196;DHT22;2617;51.006;12.436;2023-07-31T10:46:56;21.00;99.90
5196;DHT22;2617;51.006;12.436;2023-07-31T10:51:58;21.10;99.90
5196;DHT22;2617;51.006;12.436;2023-07-31T10:57:01;21.10;99.90
5196;DHT22;2617;51.006;12.436;2023-07-31T11:02:03;21.30;99.90
5196;DHT22;2617;51.006;12.436;2023-07-31T11:07:06;21.60;99.90
5196;DHT22;2617;51.006;12.436;2023-07-31T11:12:09;21.60;99.90
5196;DHT22;2617;51.006;12.436;2023-07-31T11:17:11;21.80;99.90
5196;DHT22;2617;51.006;12.436;2023-07-31T11:22:14;21.90;99.90
5196;DHT22;2617;51.006;12.436;2023-07-31T11:27:17;22.90;99.90
5196;DHT22;2617;51.006;12.436;2023-07-31T11:32:19;22.80;99.90
5196;DHT22;2617;51.006;12.436;2023-07-31T11:37:22;23.10;99.20
5196;DHT22;2617;51.006;12.436;2023-07-31T11:42:25;22.90;97.90
5196;DHT22;2617;51.006;12.436;2023-07-31T11:47:28;22.30;99.00
5196;DHT22;2617;51.006;12.436;2023-07-31T11:52:32;22.00;99.90
5196;DHT22;2617;51.006;12.436;2023-07-31T11:57:33;21.70;99.90
5196;DHT22;2617;51.006;12.436;2023-07-31T12:02:36;21.50;99.60
5196;DHT22;2617;51.006;12.436;2023-07-31T12:07:45;21.50;99.90
5196;DHT22;2617;51.006;12.436;2023-07-31T12:12:55;21.50;99.90
5196;DHT22;2617;51.006;12.436;2023-07-31T12:17:50;21.40;99.90
5196;DHT22;2617;51.006;12.436;2023-07-31T12:22:52;21.40;99.90
5196;DHT22;2617;51.006;12.436;2023-07-31T12:27:56;21.50;99.90
5196;DHT22;2617;51.006;12.436;2023-07-31T12:33:02;22.00;99.40
5196;DHT22;2617;51.006;12.436;2023-07-31T12:38:06;21.90;99.40
5196;DHT22;2617;51.006;12.436;2023-07-31T12:43:09;22.60;98.60
5196;DHT22;2617;51.006;12.436;2023-07-31T12:48:11;23.40;96.00
5196;DHT22;2617;51.006;12.436;2023-07-31T12:53:15;23.60;94.90
5196;DHT22;2617;51.006;12.436;2023-07-31T12:58:17;23.70;94.60
5196;DHT22;2617;51.006;12.436;2023-07-31T13:03:19;23.90;95.50
5196;DHT22;2617;51.006;12.436;2023-07-31T13:08:22;23.90;94.50
5196;DHT22;2617;51.006;12.436;2023-07-31T13:13:24;23.80;94.40
5196;DHT22;2617;51.006;12.436;2023-07-31T13:18:27;23.70;95.00
5196;DHT22;2617;51.006;12.436;2023-07-31T13:23:29;23.50;95.40
5196;DHT22;2617;51.006;12.436;2023-07-31T13:28:32;23.20;95.00
5196;DHT22;2617;51.006;12.436;2023-07-31T13:33:35;23.10;97.10
5196;DHT22;2617;51.006;12.436;2023-07-31T13:38:37;23.00;97.00
5196;DHT22;2617;51.006;12.436;2023-07-31T13:43:40;23.00;97.20
5196;DHT22;2617;51.006;12.436;2023-07-31T13:48:43;23.00;97.20
5196;DHT22;2617;51.006;12.436;2023-07-31T13:53:45;22.80;96.50
5196;DHT22;2617;51.006;12.436;2023-07-31T13:58:48;22.80;96.70
5196;DHT22;2617;51.006;12.436;2023-07-31T14:03:50;23.00;95.90
5196;DHT22;2617;51.006;12.436;2023-07-31T14:08:53;22.90;95.10
5196;DHT22;2617;51.006;12.436;2023-07-31T14:13:56;22.90;95.10
5196;DHT22;2617;51.006;12.436;2023-07-31T14:18:58;22.60;95.70
5196;DHT22;2617;51.006;12.436;2023-07-31T14:24:01;22.50;95.50
5196;DHT22;2617;51.006;12.436;2023-07-31T14:29:03;22.20;96.50
5196;DHT22;2617;51.006;12.436;2023-07-31T14:34:06;21.90;97.70
5196;DHT22;2617;51.006;12.436;2023-07-31T14:39:08;21.70;98.60
5196;DHT22;2617;51.006;12.436;2023-07-31T14:44:11;21.50;99.40
5196;DHT22;2617;51.006;12.436;2023-07-31T14:49:14;21.20;99.90
5196;DHT22;2617;51.006;12.436;2023-07-31T14:54:16;21.20;99.90
5196;DHT22;2617;51.006;12.436;2023-07-31T14:59:19;21.30;99.90
5196;DHT22;2617;51.006;12.436;2023-07-31T15:04:22;21.60;99.50
5196;DHT22;2617;51.006;12.436;2023-07-31T15:09:25;21.60;99.90
5196;DHT22;2617;51.006;12.436;2023-07-31T15:14:28;21.60;99.90
5196;DHT22;2617;51.006;12.436;2023-07-31T15:19:31;21.70;99.50
5196;DHT22;2617;51.006;12.436;2023-07-31T15:24:34;21.80;98.30
5196;DHT22;2617;51.006;12.436;2023-07-31T15:29:36;21.80;98.30
5196;DHT22;2617;51.006;12.436;2023-07-31T15:34:39;21.80;98.60
5196;DHT22;2617;51.006;12.436;2023-07-31T15:39:41;21.70;98.80
5196;DHT22;2617;51.006;12.436;2023-07-31T15:44:44;21.60;98.90
5196;DHT22;2617;51.006;12.436;2023-07-31T15:49:46;21.40;99.10
5196;DHT22;2617;51.006;12.436;2023-07-31T15:54:49;21.30;99.70
5196;DHT22;2617;51.006;12.436;2023-07-31T15:59:51;21.30;99.90
5196;DHT22;2617;51.006;12.436;2023-07-31T16:04:53;21.20;99.90
5196;DHT22;2617;51.006;12.436;2023-07-31T16:09:56;21.10;99.90
5196;DHT22;2617;51.006;12.436;2023-07-31T16:14:59;21.00;99.90
5196;DHT22;2617;51.006;12.436;2023-07-31T16:20:02;20.80;99.90
5196;DHT22;2617;51.006;12.436;2023-07-31T16:25:06;20.80;99.90
5196;DHT22;2617;51.006;12.436;2023-07-31T16:30:10;20.80;99.90
5196;DHT22;2617;51.006;12.436;2023-07-31T16:35:13;20.80;99.90
5196;DHT22;2617;51.006;12.436;2023-07-31T16:40:15;20.80;99.90
5196;DHT22;2617;51.006;12.436;2023-07-31T16:45:18;20.90;99.90
5196;DHT22;2617;51.006;12.436;2023-07-31T16:50:20;20.90;99.90
5196;DHT22;2617;51.006;12.436;2023-07-31T16:55:23;20.90;99.90
5196;DHT22;2617;51.006;12.436;2023-07-31T17:00:25;21.00;99.90
5196;DHT22;2617;51.006;12.436;2023-07-31T17:05:28;21.00;99.90
5196;DHT22;2617;51.006;12.436;2023-07-31T17:10:30;21.10;99.90
5196;DHT22;2617;51.006;12.436;2023-07-31T17:15:33;21.00;99.90
5196;DHT22;2617;51.006;12.436;2023-07-31T17:20:35;21.00;99.90
5196;DHT22;2617;51.006;12.436;2023-07-31T17:25:38;21.00;99.90
5196;DHT22;2617;51.006;12.436;2023-07-31T17:30:40;21.00;99.90
5196;DHT22;2617;51.006;12.436;2023-07-31T17:35:43;21.00;99.90
5196;DHT22;2617;51.006;12.436;2023-07-31T17:40:45;21.00;99.90
5196;DHT22;2617;51.006;12.436;2023-07-31T17:45:48;21.00;99.90
5196;DHT22;2617;51.006;12.436;2023-07-31T17:50:51;20.90;99.90
5196;DHT22;2617;51.006;12.436;2023-07-31T17:55:53;20.80;99.90
5196;DHT22;2617;51.006;12.436;2023-07-31T18:00:56;20.70;99.90
5196;DHT22;2617;51.006;12.436;2023-07-31T18:05:58;20.70;99.90
5196;DHT22;2617;51.006;12.436;2023-07-31T18:11:00;20.60;99.90
5196;DHT22;2617;51.006;12.436;2023-07-31T18:16:03;20.60;99.90
5196;DHT22;2617;51.006;12.436;2023-07-31T18:21:06;20.60;99.90
5196;DHT22;2617;51.006;12.436;2023-07-31T18:26:08;20.60;99.90
5196;DHT22;2617;51.006;12.436;2023-07-31T18:31:10;20.50;99.90
5196;DHT22;2617;51.006;12.436;2023-07-31T18:36:13;20.40;99.90
5196;DHT22;2617;51.006;12.436;2023-07-31T18:41:15;20.30;99.90
5196;DHT22;2617;51.006;12.436;2023-07-31T18:46:18;20.20;99.90
5196;DHT22;2617;51.006;12.436;2023-07-31T18:51:20;20.10;99.90
5196;DHT22;2617;51.006;12.436;2023-07-31T18:56:23;20.00;99.90
5196;DHT22;2617;51.006;12.436;2023-07-31T19:01:26;19.90;99.90
5196;DHT22;2617;51.006;12.436;2023-07-31T19:06:29;19.90;99.90
5196;DHT22;2617;51.006;12.436;2023-07-31T19:11:31;19.90;99.90
5196;DHT22;2617;51.006;12.436;2023-07-31T19:16:34;19.90;99.90
5196;DHT22;2617;51.006;12.436;2023-07-31T19:21:36;19.80;99.90
5196;DHT22;2617;51.006;12.436;2023-07-31T19:26:39;19.80;99.90
5196;DHT22;2617;51.006;12.436;2023-07-31T19:31:42;19.70;99.90
5196;DHT22;2617;51.006;12.436;2023-07-31T19:36:44;19.70;99.90
5196;DHT22;2617;51.006;12.436;2023-07-31T19:41:47;19.60;99.90
5196;DHT22;2617;51.006;12.436;2023-07-31T19:46:49;19.60;99.90
5196;DHT22;2617;51.006;12.436;2023-07-31T19:51:52;19.60;99.90
5196;DHT22;2617;51.006;12.436;2023-07-31T19:56:54;19.60;99.90
5196;DHT22;2617;51.006;12.436;2023-07-31T20:01:57;19.60;99.90
5196;DHT22;2617;51.006;12.436;2023-07-31T20:07:00;19.60;99.90
5196;DHT22;2617;51.006;12.436;2023-07-31T20:12:02;19.60;99.90
5196;DHT22;2617;51.006;12.436;2023-07-31T20:17:05;19.60;99.90
5196;DHT22;2617;51.006;12.436;2023-07-31T20:22:07;19.60;99.90
5196;DHT22;2617;51.006;12.436;2023-07-31T20:27:11;19.50;99.90
5196;DHT22;2617;51.006;12.436;2023-07-31T20:32:13;19.50;99.90
5196;DHT22;2617;51.006;12.436;2023-07-31T20:37:16;19.50;99.90
5196;DHT22;2617;51.006;12.436;2023-07-31T20:42:18;19.60;99.90
5196;DHT22;2617;51.006;12.436;2023-07-31T20:47:20;19.50;99.90
5196;DHT22;2617;51.006;12.436;2023-07-31T20:52:23;19.50;99.90
5196;DHT22;2617;51.006;12.436;2023-07-31T20:57:26;19.40;99.90
5196;DHT22;2617;51.006;12.436;2023-07-31T21:02:29;19.40;99.90
5196;DHT22;2617;51.006;12.436;2023-07-31T21:07:33;19.20;99.90
5196;DHT22;2617;51.006;12.436;2023-07-31T21:12:35;19.20;99.90
5196;DHT22;2617;51.006;12.436;2023-07-31T21:17:38;19.20;99.90
5196;DHT22;2617;51.006;12.436;2023-07-31T21:22:40;19.10;99.90
5196;DHT22;2617;51.006;12.436;2023-07-31T21:27:43;18.90;99.90
5196;DHT22;2617;51.006;12.436;2023-07-31T21:32:45;18.80;99.90
5196;DHT22;2617;51.006;12.436;2023-07-31T21:37:48;18.60;99.90
5196;DHT22;2617;51.006;12.436;2023-07-31T21:42:51;18.30;99.90
5196;DHT22;2617;51.006;12.436;2023-07-31T21:47:53;18.30;99.90
5196;DHT22;2617;51.006;12.436;2023-07-31T21:52:56;18.20;99.90
5196;DHT22;2617;51.006;12.436;2023-07-31T21:57:58;18.10;99.90
5196;DHT22;2617;51.006;12.436;2023-07-31T22:03:01;18.00;99.90
5196;DHT22;2617;51.006;12.436;2023-07-31T22:08:03;17.90;99.90
5196;DHT22;2617;51.006;12.436;2023-07-31T22:13:06;17.80;99.90
5196;DHT22;2617;51.006;12.436;2023-07-31T22:18:08;17.60;99.90
5196;DHT22;2617;51.006;12.436;2023-07-31T22:23:11;17.50;99.90
5196;DHT22;2617;51.006;12.436;2023-07-31T22:28:13;17.30;99.90
5196;DHT22;2617;51.006;12.436;2023-07-31T22:33:15;17.20;99.90
5196;DHT22;2617;51.006;12.436;2023-07-31T22:38:19;17.00;99.90
5196;DHT22;2617;51.006;12.436;2023-07-31T22:43:20;16.90;99.90
5196;DHT22;2617;51.006;12.436;2023-07-31T22:48:23;16.70;99.90
5196;DHT22;2617;51.006;12.436;2023-07-31T22:53:26;16.70;99.90
5196;DHT22;2617;51.006;12.436;2023-07-31T22:58:28;16.70;99.90
5196;DHT22;2617;51.006;12.436;2023-07-31T23:03:31;16.70;99.90
5196;DHT22;2617;51.006;12.436;2023-07-31T23:08:33;16.60;99.90
5196;DHT22;2617;51.006;12.436;2023-07-31T23:13:36;16.60;99.90
5196;DHT22;2617;51.006;12.436;2023-07-31T23:18:39;16.60;99.90
5196;DHT22;2617;51.006;12.436;2023-07-31T23:23:41;16.60;99.90
5196;DHT22;2617;51.006;12.436;2023-07-31T23:28:44;16.60;99.90
5196;DHT22;2617;51.006;12.436;2023-07-31T23:33:46;16.60;99.90
5196;DHT22;2617;51.006;12.436;2023-07-31T23:38:49;16.50;99.90
5196;DHT22;2617;51.006;12.436;2023-07-31T23:43:53;16.50;99.90
5196;DHT22;2617;51.006;12.436;2023-07-31T23:48:55;16.50;99.90
5196;DHT22;2617;51.006;12.436;2023-07-31T23:53:58;16.50;99.90
5196;DHT22;2617;51.006;12.436;2023-07-31T23:59:00;16.50;99.90
